Time;durP1;ratioP1;P1;durP2;ratioP2;P2;SDS_P1;SDS_P2;PMS_P1;PMS_P2;Temp;Humidity;BMP_temperature;BMP_pressure;BME280_temperature;BME280_humidity;BME280_pressure;Samples;Min_cycle;Max_cycle;Signal;HPM_P1;HPM_P2
2023/03/13 00:01:34;;;;;;;11.88;7.60;;;;;;;7.90;100.00;101186.56;5052890;28;20044;-72
2023/03/13 00:04:00;;;;;;;9.98;7.22;;;;;;;7.41;100.00;101173.75;5053333;28;20037;-73
2023/03/13 00:06:31;;;;;;;11.80;7.28;;;;;;;7.49;100.00;101126.53;5085781;28;20032;-73
2023/03/13 00:08:57;;;;;;;10.77;7.38;;;;;;;7.28;100.00;101055.66;5052032;28;20029;-73
2023/03/13 00:11:22;;;;;;;11.80;7.45;;;;;;;7.48;100.00;101061.63;5053304;28;20025;-73
2023/03/13 00:13:47;;;;;;;10.75;7.50;;;;;;;7.42;100.00;101051.50;5053181;28;20475;-73
2023/03/13 00:16:15;;;;;;;10.25;7.70;;;;;;;7.55;100.00;101074.28;5052835;28;20036;-73
2023/03/13 00:18:45;;;;;;;11.65;7.32;;;;;;;7.86;100.00;101055.75;5053233;28;20029;-73
2023/03/13 00:21:11;;;;;;;11.98;7.90;;;;;;;7.72;100.00;101046.47;5051822;28;20064;-73
2023/03/13 00:23:37;;;;;;;14.73;9.32;;;;;;;7.68;100.00;101022.88;5051859;28;20029;-73
2023/03/13 00:26:08;;;;;;;73.50;42.80;;;;;;;7.63;100.00;100966.34;5051650;28;20025;-72
2023/03/13 00:28:35;;;;;;;24.73;14.40;;;;;;;7.66;100.00;100975.63;5051362;28;20033;-73
2023/03/13 00:31:00;;;;;;;14.50;8.95;;;;;;;7.58;100.00;100964.66;5051907;28;20044;-73
2023/03/13 00:33:26;;;;;;;18.42;9.63;;;;;;;7.39;100.00;100904.78;5052966;28;20407;-73
2023/03/13 00:35:51;;;;;;;11.57;9.45;;;;;;;7.48;100.00;100937.66;5051331;28;20352;-73
2023/03/13 00:38:16;;;;;;;14.35;8.25;;;;;;;7.20;100.00;100944.41;5052464;28;20035;-73
2023/03/13 00:40:42;;;;;;;12.75;7.93;;;;;;;6.98;100.00;100874.41;5051606;28;20410;-73
2023/03/13 00:43:07;;;;;;;11.38;8.23;;;;;;;7.27;100.00;100917.44;5052472;28;20025;-73
2023/03/13 00:45:33;;;;;;;11.90;8.38;;;;;;;7.22;100.00;100883.69;5052478;28;20048;-73
2023/03/13 00:47:58;;;;;;;10.95;8.48;;;;;;;7.42;100.00;100917.44;5053177;28;21454;-73
2023/03/13 00:50:23;;;;;;;15.48;8.63;;;;;;;7.13;100.00;100866.00;5051475;28;20048;-73
2023/03/13 00:52:49;;;;;;;15.63;9.60;;;;;;;7.19;100.00;100919.94;5052262;28;20437;-73
2023/03/13 00:55:14;;;;;;;11.20;8.75;;;;;;;7.12;100.00;100910.66;5050982;28;20035;-73
2023/03/13 00:57:39;;;;;;;14.70;8.90;;;;;;;7.08;100.00;100882.84;5050865;28;20048;-73
2023/03/13 01:00:06;;;;;;;12.88;7.97;;;;;;;7.25;100.00;100854.19;5052446;28;20025;-73
2023/03/13 01:02:31;;;;;;;13.45;7.75;;;;;;;7.29;100.00;100872.75;5052091;28;20036;-73
2023/03/13 01:04:56;;;;;;;10.93;8.30;;;;;;;7.12;100.00;100808.69;5051932;28;20505;-73
2023/03/13 01:07:22;;;;;;;12.00;8.45;;;;;;;7.05;100.00;100805.34;5050973;28;20482;-73
2023/03/13 01:09:47;;;;;;;13.38;8.23;;;;;;;6.61;100.00;100792.69;5052203;28;20029;-73
2023/03/13 01:12:13;;;;;;;12.32;8.05;;;;;;;6.70;100.00;100786.78;5050879;28;20063;-73
2023/03/13 01:14:38;;;;;;;12.40;8.45;;;;;;;7.07;100.00;100792.69;5051854;28;20495;-73
2023/03/13 01:17:04;;;;;;;8.63;7.63;;;;;;;7.22;100.00;100828.06;5052406;28;20021;-73
2023/03/13 01:19:29;;;;;;;14.07;8.02;;;;;;;7.29;100.00;100825.53;5051884;28;20506;-73
2023/03/13 01:21:54;;;;;;;12.90;8.48;;;;;;;6.79;100.00;100789.34;5050979;28;20124;-73
2023/03/13 01:24:21;;;;;;;13.60;8.40;;;;;;;6.68;100.00;100831.41;5051420;28;20021;-73
2023/03/13 01:26:46;;;;;;;10.38;8.32;;;;;;;6.61;100.00;100820.47;5051597;28;20056;-73
2023/03/13 01:29:12;;;;;;;13.05;8.45;;;;;;;6.47;100.00;100774.16;5052190;28;20056;-73
2023/03/13 01:31:37;;;;;;;14.85;8.57;;;;;;;6.58;100.00;100815.41;5051571;28;20021;-73
2023/03/13 01:34:04;;;;;;;11.95;8.30;;;;;;;6.84;100.00;100833.97;5051738;28;20094;-73
2023/03/13 01:36:31;;;;;;;13.68;8.40;;;;;;;6.31;100.00;100807.78;5050628;28;20170;-73
2023/03/13 01:38:58;;;;;;;13.68;8.80;;;;;;;6.56;100.00;100780.88;5050515;28;20036;-73
2023/03/13 01:41:25;;;;;;;14.60;9.10;;;;;;;6.76;100.00;100827.22;5051783;28;20037;-72
2023/03/13 01:43:51;;;;;;;14.20;9.43;;;;;;;6.05;100.00;100753.84;5050534;28;20025;-73
2023/03/13 01:46:18;;;;;;;14.48;8.80;;;;;;;6.52;100.00;100842.31;5051816;28;20082;-73
2023/03/13 01:48:46;;;;;;;15.65;9.50;;;;;;;6.88;100.00;100835.66;5051876;28;20096;-73
2023/03/13 01:51:41;;;;;;;16.08;9.23;;;;;;;6.72;100.00;100843.22;5051119;28;20052;-73
2023/03/13 01:54:11;;;;;;;12.98;8.68;;;;;;;6.25;100.00;100837.22;5050303;28;20049;-73
2023/03/13 01:56:47;;;;;;;15.45;9.35;;;;;;;6.08;100.00;100789.22;5051293;28;20024;-73
2023/03/13 01:59:15;;;;;;;16.02;9.82;;;;;;;5.83;100.00;100769.72;5051516;28;20029;-73
2023/03/13 02:01:45;;;;;;;17.02;11.02;;;;;;;6.29;100.00;100849.00;5050927;28;20144;-73
2023/03/13 02:04:12;;;;;;;14.20;10.70;;;;;;;5.53;100.00;100775.47;5050037;28;20027;-72
2023/03/13 02:06:41;;;;;;;14.85;9.60;;;;;;;6.00;100.00;100811.06;5049662;28;20039;-73
2023/03/13 02:09:12;;;;;;;14.40;9.77;;;;;;;5.96;100.00;100806.84;5050175;28;20182;-73
2023/03/13 02:11:47;;;;;;;11.85;7.88;;;;;;;6.02;100.00;100863.19;5051493;28;20033;-73
2023/03/13 02:14:16;;;;;;;15.95;10.18;;;;;;;6.06;100.00;100854.00;5050000;28;20029;-73
2023/03/13 02:16:46;;;;;;;16.77;10.90;;;;;;;6.00;100.00;100827.03;5051844;28;20029;-73
2023/03/13 02:19:48;;;;;;;15.05;11.25;;;;;;;5.88;100.00;100886.69;5049866;28;20028;-73
2023/03/13 02:22:41;;;;;;;15.75;10.68;;;;;;;5.99;100.00;100888.44;5051010;28;20474;-73
2023/03/13 02:25:24;;;;;;;16.85;10.70;;;;;;;5.92;100.00;100893.44;5051658;28;20056;-73
2023/03/13 02:27:59;;;;;;;18.23;10.30;;;;;;;5.98;100.00;100893.47;5051365;28;20087;-73
2023/03/13 02:30:24;;;;;;;12.73;9.30;;;;;;;6.31;100.00;100881.00;5051745;28;20029;-73
2023/03/13 02:32:50;;;;;;;14.38;9.45;;;;;;;5.75;100.00;100895.81;5051234;28;20036;-73
2023/03/13 02:35:20;;;;;;;18.90;11.38;;;;;;;5.33;100.00;100884.63;5051424;28;20535;-73
2023/03/13 02:37:50;;;;;;;17.10;11.43;;;;;;;5.69;100.00;100905.88;5050644;28;20059;-73
2023/03/13 02:40:23;;;;;;;18.65;10.90;;;;;;;5.26;100.00;100849.28;5051299;28;20037;-73
2023/03/13 02:42:51;;;;;;;13.23;10.05;;;;;;;5.43;100.00;100901.50;5051278;28;20058;-72
2023/03/13 02:45:17;;;;;;;17.70;10.52;;;;;;;5.09;100.00;100825.59;5051336;28;20037;-73
2023/03/13 02:47:43;;;;;;;14.45;9.48;;;;;;;5.45;100.00;100922.53;5049834;28;20029;-73
2023/03/13 02:50:10;;;;;;;13.27;9.07;;;;;;;5.72;100.00;100921.03;5050573;28;20049;-73
2023/03/13 02:52:52;;;;;;;13.02;8.60;;;;;;;5.54;100.00;100842.75;5050271;28;20025;-73
2023/03/13 02:55:23;;;;;;;10.90;8.07;;;;;;;5.62;100.00;100936.94;5050620;28;20040;-73
2023/03/13 02:57:49;;;;;;;13.17;8.37;;;;;;;4.88;100.00;100921.16;5050693;28;20518;-73
2023/03/13 03:00:16;;;;;;;12.75;7.90;;;;;;;4.80;100.00;100886.63;5049900;28;20029;-73
2023/03/13 03:02:42;;;;;;;11.80;8.13;;;;;;;4.66;100.00;100948.59;5049488;28;20032;-73
2023/03/13 03:05:08;;;;;;;11.98;8.38;;;;;;;4.83;100.00;100953.00;5040239;28;20025;-74
2023/03/13 03:07:34;;;;;;;11.57;7.88;;;;;;;4.62;100.00;100909.97;5051083;28;20017;-74
2023/03/13 03:10:00;;;;;;;11.43;7.90;;;;;;;4.58;100.00;100919.97;5050809;28;20025;-73
2023/03/13 03:12:25;;;;;;;12.00;8.13;;;;;;;4.90;100.00;100954.75;5049590;28;20102;-74
2023/03/13 03:14:50;;;;;;;11.55;8.45;;;;;;;4.71;100.00;100954.53;5052765;28;20029;-74
2023/03/13 03:17:16;;;;;;;11.93;8.05;;;;;;;4.46;100.00;100893.00;5053379;28;20033;-72
2023/03/13 03:19:41;;;;;;;11.85;8.65;;;;;;;4.56;100.00;100887.22;5053859;28;20145;-73
2023/03/13 03:22:07;;;;;;;15.13;10.73;;;;;;;4.56;100.00;100957.72;5053990;28;20044;-73
2023/03/13 03:24:32;;;;;;;16.92;10.90;;;;;;;4.35;100.00;100953.28;5054208;28;20037;-74
2023/03/13 03:26:57;;;;;;;18.45;13.50;;;;;;;3.98;100.00;100872.28;5053885;28;20052;-72
2023/03/13 03:29:23;;;;;;;24.08;14.38;;;;;;;4.06;100.00;100923.53;5053466;28;20091;-74
2023/03/13 03:31:48;;;;;;;35.08;18.35;;;;;;;4.12;100.00;100957.16;5052842;28;20024;-73
2023/03/13 03:34:14;;;;;;;32.42;17.75;;;;;;;4.01;100.00;100927.66;5052501;28;20029;-73
2023/03/13 03:36:39;;;;;;;26.92;14.10;;;;;;;3.21;100.00;100824.25;5041663;28;20041;-71
2023/03/13 03:39:05;;;;;;;23.88;13.25;;;;;;;4.07;100.00;100879.94;5032361;28;20118;-74
2023/03/13 03:41:30;;;;;;;16.58;11.10;;;;;;;4.05;100.00;100922.69;5033768;28;20048;-73
2023/03/13 03:43:56;;;;;;;16.30;10.63;;;;;;;4.09;100.00;100884.16;5065827;28;20032;-74
2023/03/13 03:46:21;;;;;;;16.25;11.57;;;;;;;4.15;100.00;100948.81;5034182;28;20033;-74
2023/03/13 03:48:47;;;;;;;18.70;12.35;;;;;;;3.83;100.00;100950.88;5033583;28;20034;-73
2023/03/13 03:51:12;;;;;;;17.15;11.90;;;;;;;4.26;100.00;100949.78;5034153;28;20041;-73
2023/03/13 03:53:38;;;;;;;25.52;14.05;;;;;;;4.34;100.00;100953.25;5033784;28;20060;-73
2023/03/13 03:56:04;;;;;;;19.77;12.27;;;;;;;3.79;100.00;100906.38;5032477;28;20041;-73
2023/03/13 03:58:29;;;;;;;20.38;11.18;;;;;;;3.93;100.00;100919.16;5044736;28;20147;-74
2023/03/13 04:00:57;;;;;;;15.73;9.10;;;;;;;3.93;100.00;100916.63;5053330;28;20123;-73
2023/03/13 04:03:23;;;;;;;15.95;9.15;;;;;;;4.47;100.00;100961.81;5053869;28;20505;-73
2023/03/13 04:05:49;;;;;;;16.45;9.70;;;;;;;4.31;100.00;100907.91;5052135;28;20125;-73
2023/03/13 04:08:15;;;;;;;14.60;9.90;;;;;;;4.24;100.00;100891.91;5053216;28;20119;-73
2023/03/13 04:10:40;;;;;;;12.50;9.15;;;;;;;4.17;100.00;100900.22;5052113;28;20044;-73
2023/03/13 04:13:06;;;;;;;15.02;8.70;;;;;;;4.02;100.00;100901.69;5053055;28;20033;-74
2023/03/13 04:15:31;;;;;;;12.82;8.35;;;;;;;4.36;100.00;100903.78;5053726;28;20079;-73
2023/03/13 04:17:57;;;;;;;15.40;9.05;;;;;;;4.02;100.00;100921.81;5053230;28;20029;-73
2023/03/13 04:20:22;;;;;;;12.30;8.45;;;;;;;3.68;100.00;100857.63;5051613;28;20040;-73
2023/03/13 04:22:47;;;;;;;13.82;8.65;;;;;;;4.39;100.00;100896.28;5052381;28;20574;-73
2023/03/13 04:25:13;;;;;;;11.18;8.13;;;;;;;4.28;100.00;100915.41;5051955;28;20136;-73
2023/03/13 04:27:38;;;;;;;15.90;8.40;;;;;;;4.40;100.00;100965.91;5052052;28;20475;-73
2023/03/13 04:30:04;;;;;;;15.57;8.52;;;;;;;4.43;100.00;100980.22;5052614;28;20033;-73
2023/03/13 04:32:30;;;;;;;18.63;8.70;;;;;;;3.97;100.00;100918.38;5044281;28;20083;-71
2023/03/13 04:34:55;;;;;;;14.55;8.20;;;;;;;4.61;100.00;100963.69;5031397;28;20039;-72
2023/03/13 04:37:20;;;;;;;10.70;7.57;;;;;;;4.58;100.00;100966.13;5031173;28;20102;-70
2023/03/13 04:39:46;;;;;;;16.88;8.35;;;;;;;4.53;100.00;100924.13;5032728;28;20029;-74
2023/03/13 04:42:13;;;;;;;12.85;7.85;;;;;;;4.57;100.00;100938.44;5043694;28;20052;-72
2023/03/13 04:44:38;;;;;;;16.05;8.65;;;;;;;4.67;100.00;100988.94;5052939;28;20090;-72
2023/03/13 04:47:04;;;;;;;17.40;9.10;;;;;;;4.63;100.00;100941.03;5051832;28;20037;-72
2023/03/13 04:49:29;;;;;;;21.33;10.38;;;;;;;3.94;100.00;100930.91;5052318;28;20028;-72
2023/03/13 04:51:55;;;;;;;18.40;10.55;;;;;;;4.42;100.00;100986.91;5052077;28;20175;-70
2023/03/13 04:54:21;;;;;;;17.58;10.18;;;;;;;3.99;100.00;100949.41;5050249;28;20119;-72
2023/03/13 04:56:46;;;;;;;27.60;16.15;;;;;;;4.51;100.00;101007.19;5051298;28;20482;-71
2023/03/13 04:59:13;;;;;;;24.00;15.60;;;;;;;4.16;100.00;100983.22;5050149;28;20139;-71
2023/03/13 05:01:39;;;;;;;31.05;19.42;;;;;;;4.03;100.00;100962.06;5050887;28;20039;-69
2023/03/13 05:04:12;;;;;;;31.63;20.33;;;;;;;4.12;100.00;100928.66;5048001;28;20041;-69
2023/03/13 05:06:38;;;;;;;28.33;17.70;;;;;;;4.60;100.00;100972.03;5031239;28;20381;-69
2023/03/13 05:09:03;;;;;;;28.88;16.52;;;;;;;4.34;100.00;100966.69;5029727;28;20035;-70
2023/03/13 05:11:29;;;;;;;23.58;16.00;;;;;;;4.40;100.00;100963.38;5031103;28;20033;-69
2023/03/13 05:13:55;;;;;;;18.92;13.45;;;;;;;6.06;100.00;101005.41;5031305;28;20450;-70
2023/03/13 05:16:20;;;;;;;20.40;13.85;;;;;;;9.99;100.00;100955.88;5029799;28;20029;-69
2023/03/13 05:18:46;;;;;;;19.25;12.30;;;;;;;12.04;100.00;101001.44;5030979;28;20108;-69
2023/03/13 05:21:11;;;;;;;22.27;12.38;;;;;;;11.48;100.00;101028.66;5031173;28;20034;-70
2023/03/13 05:23:38;;;;;;;17.08;10.75;;;;;;;12.15;100.00;101014.84;5031387;28;20030;-68
2023/03/13 05:26:04;;;;;;;16.40;11.20;;;;;;;11.14;100.00;100997.75;5029410;28;20111;-70
2023/03/13 05:28:29;;;;;;;14.57;10.80;;;;;;;12.38;100.00;101026.34;5031300;28;20029;-70
2023/03/13 05:30:55;;;;;;;17.00;11.68;;;;;;;10.33;100.00;101106.34;5030849;28;20026;-70
2023/03/13 05:33:30;;;;;;;17.25;11.23;;;;;;;8.54;100.00;101121.63;5031057;28;20025;-69
2023/03/13 05:35:56;;;;;;;15.82;10.55;;;;;;;8.02;100.00;101125.00;5030340;28;20128;-71
2023/03/13 05:38:21;;;;;;;17.50;10.75;;;;;;;7.58;100.00;101027.91;5030351;28;20548;-69
2023/03/13 05:40:46;;;;;;;16.15;10.57;;;;;;;7.66;100.00;101113.13;5039258;28;20465;-69
2023/03/13 05:43:12;;;;;;;23.75;14.00;;;;;;;7.54;100.00;101094.53;5037396;28;20029;-68
2023/03/13 05:45:37;;;;;;;13.80;10.75;;;;;;;7.87;100.00;101097.09;5038036;28;20057;-70
2023/03/13 05:48:03;;;;;;;18.75;11.15;;;;;;;8.18;100.00;101136.78;5028651;28;20127;-70
2023/03/13 05:50:28;;;;;;;20.95;10.52;;;;;;;8.23;100.00;101116.53;5029452;28;20045;-71
2023/03/13 05:52:55;;;;;;;24.50;11.10;;;;;;;8.28;100.00;101067.59;5028769;28;20037;-71
2023/03/13 05:55:20;;;;;;;15.25;9.13;;;;;;;8.65;100.00;101160.47;5030519;28;20121;-72
2023/03/13 05:57:47;;;;;;;13.23;8.00;;;;;;;8.98;100.00;101167.16;5028916;28;20494;-71
2023/03/13 06:00:15;;;;;;;17.48;7.35;;;;;;;9.16;100.00;101102.84;5030311;28;20033;-71
2023/03/13 06:02:41;;;;;;;12.02;7.57;;;;;;;9.11;100.00;101158.66;5029573;28;20415;-70
2023/03/13 06:05:08;;;;;;;9.73;6.65;;;;;;;8.54;100.00;101123.28;5030104;28;20036;-71
2023/03/13 06:07:33;;;;;;;9.45;5.78;;;;;;;9.75;100.00;101169.41;5029865;28;20030;-71
2023/03/13 06:09:59;;;;;;;7.28;6.18;;;;;;;9.08;100.00;101153.63;5030289;28;20030;-71
2023/03/13 06:12:24;;;;;;;8.32;5.78;;;;;;;9.33;100.00;101172.16;5030038;28;20702;-72
2023/03/13 06:14:50;;;;;;;10.23;5.88;;;;;;;10.06;100.00;101175.97;5029363;28;20026;-71
2023/03/13 06:17:15;;;;;;;6.88;5.88;;;;;;;10.90;100.00;101187.19;5030608;28;20073;-71
2023/03/13 06:19:40;;;;;;;7.65;5.78;;;;;;;10.25;100.00;101195.38;5030545;28;20029;-71
2023/03/13 06:22:06;;;;;;;7.82;6.18;;;;;;;9.00;100.00;101213.66;5030274;28;20116;-71
2023/03/13 06:24:31;;;;;;;8.88;6.10;;;;;;;11.02;100.00;101207.41;5030990;28;20029;-70
2023/03/13 06:26:57;;;;;;;9.65;5.85;;;;;;;10.80;100.00;101215.25;5030398;28;20148;-71
2023/03/13 06:29:23;;;;;;;7.32;5.50;;;;;;;10.07;100.00;101220.88;5030721;28;20171;-70
2023/03/13 06:31:49;;;;;;;5.55;5.00;;;;;;;10.68;100.00;101228.94;5030742;28;20112;-71
2023/03/13 06:34:15;;;;;;;7.00;5.35;;;;;;;11.04;100.00;101230.28;5030454;28;20026;-71
2023/03/13 06:36:41;;;;;;;6.93;4.88;;;;;;;10.53;100.00;101159.56;5030719;28;20084;-71
2023/03/13 06:39:07;;;;;;;8.93;5.05;;;;;;;10.38;100.00;101255.44;5030963;28;20025;-71
2023/03/13 06:41:32;;;;;;;6.55;4.57;;;;;;;10.74;100.00;101185.63;5030312;28;20476;-72
2023/03/13 06:43:58;;;;;;;5.47;4.40;;;;;;;11.75;100.00;101248.22;5030572;28;20029;-71
2023/03/13 06:46:23;;;;;;;4.60;4.00;;;;;;;11.67;100.00;101259.34;5029340;28;20507;-71
2023/03/13 06:48:49;;;;;;;5.20;3.90;;;;;;;10.78;100.00;101233.09;5030241;28;20029;-71
2023/03/13 06:51:18;;;;;;;5.82;4.22;;;;;;;10.91;100.00;101279.63;5034089;28;20143;-72
2023/03/13 06:53:44;;;;;;;9.52;4.60;;;;;;;11.32;100.00;101232.56;5034393;28;20030;-70
2023/03/13 06:56:10;;;;;;;5.10;4.07;;;;;;;11.14;100.00;101232.75;5033258;28;20041;-71
2023/03/13 06:58:36;;;;;;;5.13;4.25;;;;;;;11.98;100.00;101274.22;5034078;28;20040;-70
2023/03/13 07:01:09;;;;;;;4.75;3.63;;;;;;;11.77;100.00;101287.25;5033886;28;20037;-71
2023/03/13 07:03:36;;;;;;;5.05;3.40;;;;;;;12.28;100.00;101265.34;5034104;28;20565;-72
2023/03/13 07:06:03;;;;;;;7.20;4.10;;;;;;;12.67;100.00;101252.00;5033815;28;20021;-71
2023/03/13 07:08:30;;;;;;;6.20;4.13;;;;;;;12.05;100.00;101278.41;5034494;28;20025;-70
2023/03/13 07:11:01;;;;;;;6.13;4.80;;;;;;;13.22;100.00;101246.81;5032124;28;20057;-71
2023/03/13 07:13:27;;;;;;;11.88;9.05;;;;;;;12.52;100.00;101282.00;5033951;28;20084;-71
2023/03/13 07:15:53;;;;;;;7.00;5.85;;;;;;;12.56;100.00;101227.50;5032868;28;20421;-71
2023/03/13 07:18:19;;;;;;;8.05;7.18;;;;;;;12.61;100.00;101269.09;5052023;28;20112;-72
2023/03/13 07:20:51;;;;;;;4.05;3.65;;;;;;;11.87;100.00;101303.28;5053975;28;20553;-71
2023/03/13 07:23:17;;;;;;;8.48;6.80;;;;;;;11.84;100.00;101306.72;5054210;28;20029;-71
2023/03/13 07:25:42;;;;;;;7.50;5.68;;;;;;;12.51;100.00;101291.38;5054162;28;20108;-72
2023/03/13 07:28:07;;;;;;;5.57;4.60;;;;;;;12.30;100.00;101268.69;5053787;28;20033;-71
2023/03/13 07:30:33;;;;;;;6.03;4.00;;;;;;;12.35;100.00;101259.28;5052578;28;20415;-71
2023/03/13 07:32:58;;;;;;;6.57;4.13;;;;;;;12.97;100.00;101322.13;5053317;28;20025;-71
2023/03/13 07:35:25;;;;;;;13.60;10.50;;;;;;;12.91;100.00;101317.13;5053521;28;20082;-71
2023/03/13 07:37:51;;;;;;;6.97;5.68;;;;;;;12.42;100.00;101272.81;5053012;28;20090;-71
2023/03/13 07:40:16;;;;;;;9.35;5.28;;;;;;;12.79;100.00;101290.09;5051507;28;20037;-71
2023/03/13 07:42:42;;;;;;;9.50;6.43;;;;;;;13.20;100.00;101309.84;5053747;28;20545;-70
2023/03/13 07:45:08;;;;;;;12.73;7.85;;;;;;;12.63;100.00;101309.03;5052041;28;20029;-71
2023/03/13 07:47:34;;;;;;;6.28;4.85;;;;;;;13.45;100.00;101284.72;5038531;28;20040;-71
2023/03/13 07:49:59;;;;;;;5.68;4.57;;;;;;;12.86;100.00;101188.72;5032679;28;20053;-71
2023/03/13 07:52:26;;;;;;;6.47;4.45;;;;;;;12.71;100.00;101183.88;5033038;28;20423;-71
2023/03/13 07:54:52;;;;;;;12.80;9.60;;;;;;;13.08;100.00;101049.63;5041611;28;20033;-71
2023/03/13 07:57:18;;;;;;;7.18;4.78;;;;;;;12.17;100.00;100971.47;5052668;28;20059;-70
2023/03/13 07:59:43;;;;;;;12.82;9.85;;;;;;;12.82;100.00;100891.91;5052114;28;20471;-71
2023/03/13 08:02:12;;;;;;;5.13;4.03;;;;;;;13.12;100.00;100714.22;5051589;28;20490;-71
2023/03/13 08:04:38;;;;;;;6.63;4.15;;;;;;;12.59;100.00;100488.53;5052427;28;20044;-71
2023/03/13 08:07:10;;;;;;;4.10;3.50;;;;;;;11.90;100.00;100241.56;5052616;28;20017;-71
2023/03/13 08:09:36;;;;;;;4.43;3.90;;;;;;;12.53;100.00;99991.41;5052620;28;20036;-71
2023/03/13 08:12:01;;;;;;;6.05;4.88;;;;;;;12.26;100.00;99713.72;5052647;28;20095;-70
2023/03/13 08:14:27;;;;;;;5.65;4.50;;;;;;;12.73;100.00;99438.03;5052740;28;20037;-71
2023/03/13 08:16:53;;;;;;;5.47;4.30;;;;;;;12.99;100.00;99304.94;5051192;28;20025;-70
2023/03/13 08:19:18;;;;;;;5.70;3.92;;;;;;;13.69;100.00;99255.47;5052522;28;20486;-71
2023/03/13 08:21:43;;;;;;;7.57;5.93;;;;;;;12.82;100.00;99468.19;5051835;28;20043;-71
2023/03/13 08:24:10;;;;;;;6.10;4.22;;;;;;;12.80;100.00;99676.63;5052579;28;20108;-71
2023/03/13 08:26:37;;;;;;;7.90;3.95;;;;;;;13.01;100.00;99775.22;5052380;28;20064;-71
2023/03/13 08:29:06;;;;;;;3.15;2.35;;;;;;;13.07;100.00;99955.41;5052253;28;20036;-71
2023/03/13 08:31:36;;;;;;;4.65;2.55;;;;;;;12.35;100.00;100032.00;5050561;28;20029;-71
2023/03/13 08:34:01;;;;;;;3.05;2.50;;;;;;;13.20;100.00;100086.78;5052320;28;20376;-71
2023/03/13 08:36:30;;;;;;;5.50;3.45;;;;;;;13.49;100.00;100145.25;5052023;28;20037;-71
2023/03/13 08:38:59;;;;;;;4.70;3.35;;;;;;;13.12;100.00;100277.66;5051100;28;20071;-71
2023/03/13 08:41:30;;;;;;;4.43;3.42;;;;;;;12.88;100.00;100337.13;5051487;28;20033;-72
2023/03/13 08:43:56;;;;;;;4.72;3.78;;;;;;;13.51;100.00;100364.88;5052480;28;20409;-71
2023/03/13 08:46:22;;;;;;;4.55;3.17;;;;;;;12.64;100.00;100493.50;5052601;28;20064;-72
2023/03/13 08:48:50;;;;;;;5.97;3.13;;;;;;;12.53;100.00;100475.94;5050882;28;20116;-74
2023/03/13 08:51:16;;;;;;;4.15;2.97;;;;;;;13.65;100.00;100577.31;5051902;28;20049;-72
2023/03/13 08:53:42;;;;;;;8.65;4.10;;;;;;;13.22;95.94;100584.59;5052269;28;20047;-72
2023/03/13 08:56:09;;;;;;;6.78;4.15;;;;;;;12.64;97.63;100652.50;5051760;28;20036;-71
2023/03/13 08:58:35;;;;;;;5.35;2.50;;;;;;;12.71;92.87;100638.72;5047213;28;20040;-71
2023/03/13 09:01:12;;;;;;;4.30;3.10;;;;;;;13.34;93.73;100648.91;5051475;28;20098;-72
2023/03/13 09:03:38;;;;;;;3.47;2.70;;;;;;;12.83;93.37;100679.22;5051494;28;20025;-71
2023/03/13 09:06:04;;;;;;;4.47;3.22;;;;;;;13.12;92.97;100726.97;5051157;28;20025;-73
2023/03/13 09:08:31;;;;;;;4.15;3.45;;;;;;;13.84;94.52;100722.38;5035009;28;20119;-72
2023/03/13 09:11:00;;;;;;;7.88;3.38;;;;;;;13.01;95.46;100728.97;5031686;28;20044;-72
2023/03/13 09:13:27;;;;;;;3.90;2.70;;;;;;;12.13;90.50;100720.88;5029976;28;20025;-72
2023/03/13 09:16:02;;;;;;;5.07;2.50;;;;;;;12.14;86.83;100686.88;5032149;28;20037;-71
2023/03/13 09:18:28;;;;;;;3.10;2.40;;;;;;;13.47;81.90;100726.88;5031773;28;20065;-71
2023/03/13 09:20:54;;;;;;;3.22;2.60;;;;;;;13.68;84.77;100782.50;5031607;28;20037;-71
2023/03/13 09:23:20;;;;;;;4.10;2.90;;;;;;;13.23;86.00;100790.53;5031935;28;20052;-71
2023/03/13 09:25:47;;;;;;;4.20;2.78;;;;;;;13.75;85.84;100791.66;5031961;28;20030;-71
2023/03/13 09:28:13;;;;;;;3.20;2.45;;;;;;;12.30;81.67;100816.56;5031497;28;20030;-71
2023/03/13 09:30:38;;;;;;;8.27;5.00;;;;;;;13.03;79.69;100751.03;5031423;28;20037;-71
2023/03/13 09:33:04;;;;;;;4.28;2.92;;;;;;;12.89;75.36;100762.44;5031299;28;20037;-70
2023/03/13 09:35:29;;;;;;;2.80;2.42;;;;;;;13.41;77.03;100785.78;5031364;28;20026;-71
2023/03/13 09:37:55;;;;;;;3.20;2.13;;;;;;;14.32;72.48;100831.81;5031465;28;20025;-71
2023/03/13 09:40:25;;;;;;;2.53;2.08;;;;;;;13.92;65.51;100832.91;5031006;28;20480;-70
2023/03/13 09:42:57;;;;;;;3.28;2.15;;;;;;;13.55;58.58;100845.00;5030904;28;20435;-71
2023/03/13 09:45:37;;;;;;;2.25;1.55;;;;;;;14.03;59.27;100811.31;5029779;28;20040;-71
2023/03/13 09:48:11;;;;;;;1.98;1.42;;;;;;;14.35;56.14;100808.69;5029596;28;20479;-70
2023/03/13 09:50:52;;;;;;;3.03;1.67;;;;;;;13.99;56.31;100807.16;5030963;28;20148;-71
2023/03/13 09:53:30;;;;;;;2.45;1.65;;;;;;;14.05;54.41;100855.59;5031977;28;20025;-71
2023/03/13 09:55:56;;;;;;;2.03;1.50;;;;;;;13.15;55.03;100864.78;5030756;28;20037;-70
2023/03/13 09:58:25;;;;;;;3.97;1.50;;;;;;;13.12;52.87;100808.69;5029813;28;20032;-70
2023/03/13 10:00:59;;;;;;;3.00;1.92;;;;;;;13.91;55.09;100845.75;5030691;28;20025;-70
2023/03/13 10:03:30;;;;;;;2.20;1.52;;;;;;;13.08;54.69;100799.41;5031018;28;20124;-71
2023/03/13 10:05:59;;;;;;;2.22;1.50;;;;;;;13.42;56.02;100838.56;5030814;28;20037;-71
2023/03/13 10:08:27;;;;;;;2.38;1.27;;;;;;;15.00;52.62;100776.75;5030329;28;20044;-71
2023/03/13 10:11:16;;;;;;;3.88;2.40;;;;;;;13.24;61.61;100817.75;5032743;28;20041;-71
2023/03/13 10:14:15;;;;;;;2.72;2.20;;;;;;;14.23;58.47;100817.53;5050637;28;20135;-72
2023/03/13 10:17:09;;;;;;;4.88;2.10;;;;;;;13.92;56.96;100817.56;5049741;28;20021;-73
2023/03/13 10:19:38;;;;;;;3.75;2.70;;;;;;;14.90;55.41;100783.03;5032277;28;20124;-73
2023/03/13 10:22:17;;;;;;;3.67;2.33;;;;;;;15.29;54.56;100802.22;5050982;28;20033;-73
2023/03/13 10:25:02;;;;;;;2.88;1.83;;;;;;;13.69;55.56;100756.06;5053793;28;20033;-72
2023/03/13 10:27:27;;;;;;;5.50;3.33;;;;;;;15.31;56.61;100795.31;5054041;28;20036;-71
2023/03/13 10:29:53;;;;;;;3.70;3.00;;;;;;;14.85;54.96;100761.91;5055353;28;20033;-72
2023/03/13 10:32:19;;;;;;;4.85;2.45;;;;;;;14.87;55.02;100798.53;5055096;28;20040;-71
2023/03/13 10:34:44;;;;;;;2.42;2.00;;;;;;;14.50;54.69;100800.53;5054888;28;20037;-72
2023/03/13 10:37:15;;;;;;;5.13;2.38;;;;;;;14.76;58.39;100780.09;5053638;28;20154;-74
2023/03/13 10:39:40;;;;;;;1.88;1.63;;;;;;;14.53;53.91;100780.00;5055226;28;20033;-73
2023/03/13 10:42:42;;;;;;;3.88;1.65;;;;;;;14.37;54.28;100797.53;5054752;28;20044;-73
2023/03/13 10:45:17;;;;;;;3.97;1.63;;;;;;;14.89;54.61;100742.97;5053112;28;20037;-70
2023/03/13 10:47:43;;;;;;;2.13;1.77;;;;;;;15.63;49.42;100713.03;5054014;28;20306;-72
2023/03/13 10:50:22;;;;;;;3.50;1.60;;;;;;;14.63;49.69;100761.75;5052951;28;20103;-71
2023/03/13 10:52:49;;;;;;;2.67;1.40;;;;;;;15.68;50.33;100783.81;5052805;28;20469;-71
2023/03/13 10:55:21;;;;;;;4.35;1.60;;;;;;;15.09;49.25;100785.84;5054515;28;20152;-71
2023/03/13 10:58:03;;;;;;;3.00;1.60;;;;;;;14.99;49.49;100785.31;5054307;28;20048;-71
2023/03/13 11:00:32;;;;;;;3.30;2.00;;;;;;;15.05;51.01;100782.56;5053708;28;20045;-71
2023/03/13 11:02:58;;;;;;;3.53;1.55;;;;;;;15.46;49.45;100782.00;5039806;28;20025;-71
2023/03/13 11:05:37;;;;;;;6.53;3.05;;;;;;;15.19;49.02;100779.53;5032958;28;20472;-71
2023/03/13 11:08:30;;;;;;;6.85;3.40;;;;;;;14.78;48.75;100784.28;5034031;28;20029;-72
2023/03/13 11:11:04;;;;;;;5.35;1.95;;;;;;;14.47;49.16;100737.53;5025567;28;20144;-72
2023/03/13 11:13:41;;;;;;;2.45;1.80;;;;;;;14.51;48.86;100774.09;5033033;28;20030;-72
2023/03/13 11:16:20;;;;;;;4.32;2.22;;;;;;;14.39;48.45;100774.47;5034169;28;20034;-71
2023/03/13 11:18:58;;;;;;;6.50;3.25;;;;;;;15.50;49.40;100769.91;5034137;28;20108;-71
2023/03/13 11:21:39;;;;;;;2.10;1.85;;;;;;;15.02;48.01;100722.91;5033805;28;20033;-72